Casco, MI (48064)

3:57 PM EDT on May 25, 2015 (GMT -0400)
DWS | | Change Station
CLOSE
Current Station
Personal Weather Station
Location: Casco, MI
Elevation: 629 ft
Nearby Weather Stations

Elev 629 ft 42.77 °N, 82.68 °W | Updated 15 seconds ago

Overcast
Overcast
76.5 °F
Feels Like 78 °F
N
0.0
Wind Variable Wind from WSW
Gusts 21.3 mph

Today
High -- | Low -- °F
--% Chance of Precip.
Yesterday
High -- | Low -- °F
Precip. -- in
5:59 AM 8:56 PM
Waxing Crescent, 51% visible
Pressure 29.95 in
Visibility 10.0 miles
Clouds Scattered Clouds 3300 ft
Mostly Cloudy 4800 ft
Overcast 6000 ft
Heat Index 78 °F
Dew Point 66 °F
Humidity 69%
Rainfall 0.00 in
Snow Depth Not available.
UV 3 out of 12
Pollen 8.00 out of 12
Air Quality Not available.
Flu Activity Sporadic
METAR KPHN 251936Z AUTO 25010G17KT 210V270 10SM SCT033 BKN048 OVC060 23/17 A2995 RMK AO2

More Conditions Fewer Conditions

Pressure 29.95 in
Visibility 10.0 miles
Clouds Scattered Clouds 3300 ft
Mostly Cloudy 4800 ft
Overcast 6000 ft
Heat Index 78 °F
Dew Point 66 °F
Humidity 69%
Rainfall 0.00 in
Snow Depth Not available.
UV 3 out of 12
Pollen 8.00 out of 12
Air Quality Not available.
Flu Activity Sporadic
METAR KPHN 251936Z AUTO 25010G17KT 210V270 10SM SCT033 BKN048 OVC060 23/17 A2995 RMK AO2

More Conditions Fewer Conditions

10-Day Weather Forecast

Almanac

Astronomy

May. 25, 2015 Rise Set
Actual Time
Civil Twilight
Nautical Twilight
Astronomical Twilight
Moon
Length of Visible Light
Length of Day
Tomorrow will be .
, % of the Moon is Illuminated

Today's Extremes

State Highs State Lows

Community

WunderPhotos

Upload Photos

1,824,102 photos uploaded!

WunderBlogs® & News

Nearby

Air Quality

  Air Quality AQ Index Pollutant
Not available.

Snow Depth

Station Depth Elevation

Earthquake Activity

City Distance Mag. Time & Date
Minimum magnitude displayed is 2.5.

Coastal Water Temperatures

Place Temperature

Stations

Nearby Weather Stations

Station Location Temp. Windchill Dew Point Humidity Wind Precip. Elev Updated Type